createdAt,value
2023-04-29T00:00:34.222Z,9.97
2023-04-29T00:02:37.097Z,9.94
2023-04-29T00:04:39.146Z,9.93
2023-04-29T00:06:41.017Z,9.91
2023-04-29T00:08:42.555Z,9.90
2023-04-29T00:10:44.394Z,9.88
2023-04-29T00:12:45.984Z,9.88
2023-04-29T00:14:47.609Z,9.87
2023-04-29T00:16:50.593Z,9.87
2023-04-29T00:18:52.157Z,9.90
2023-04-29T00:20:53.914Z,9.92
2023-04-29T00:22:55.483Z,9.92
2023-04-29T00:24:57.102Z,9.93
2023-04-29T00:26:58.966Z,9.94
2023-04-29T00:29:00.536Z,9.93
2023-04-29T00:31:02.075Z,9.92
2023-04-29T00:33:05.127Z,9.91
2023-04-29T00:35:07.433Z,9.91
2023-04-29T00:37:08.978Z,9.89
2023-04-29T00:39:10.572Z,9.89
2023-04-29T00:41:12.145Z,9.88
2023-04-29T00:43:13.862Z,9.87
2023-04-29T00:45:15.548Z,9.86
2023-04-29T00:47:17.223Z,9.85
2023-04-29T00:49:21.425Z,9.85
2023-04-29T00:51:24.051Z,9.84
2023-04-29T00:53:25.733Z,9.83
2023-04-29T00:55:28.315Z,9.84
2023-04-29T00:57:30.455Z,9.84
2023-04-29T00:59:32.087Z,9.86
2023-04-29T01:01:33.996Z,9.85
2023-04-29T01:03:35.757Z,9.86
2023-04-29T01:05:38.880Z,9.86
2023-04-29T01:07:48.880Z,9.87
2023-04-29T01:10:00.632Z,9.85
2023-04-29T01:12:13.069Z,9.86
2023-04-29T01:14:15.087Z,9.85
2023-04-29T01:16:23.396Z,9.85
2023-04-29T01:18:28.122Z,9.85
2023-04-29T01:20:30.829Z,9.85
2023-04-29T01:22:33.783Z,9.84
2023-04-29T01:24:36.812Z,9.85
2023-04-29T01:26:38.858Z,9.85
2023-04-29T01:28:48.572Z,9.87
2023-04-29T01:30:56.718Z,9.88
2023-04-29T01:33:03.466Z,9.88
2023-04-29T01:35:16.190Z,9.89
2023-04-29T01:37:22.758Z,9.89
2023-04-29T01:39:33.064Z,9.90
2023-04-29T01:41:43.566Z,9.92
2023-04-29T01:43:50.121Z,9.91
2023-04-29T01:45:54.345Z,9.90
2023-04-29T01:47:57.480Z,9.91
2023-04-29T01:49:59.069Z,9.91
2023-04-29T01:52:00.627Z,9.92
2023-04-29T01:54:02.241Z,9.93
2023-04-29T01:56:04.343Z,9.93
2023-04-29T01:58:07.297Z,9.93
2023-04-29T02:00:09.402Z,9.94
2023-04-29T02:02:10.970Z,9.94
2023-04-29T02:04:12.661Z,9.94
2023-04-29T02:06:14.366Z,9.96
2023-04-29T02:08:16.243Z,9.96
2023-04-29T02:10:17.858Z,9.97
2023-04-29T02:12:19.426Z,9.96
2023-04-29T02:14:22.393Z,9.98
2023-04-29T02:16:24.533Z,10.00
2023-04-29T02:18:26.107Z,9.99
2023-04-29T02:20:27.672Z,10.00
2023-04-29T02:22:29.306Z,10.00
2023-04-29T02:24:30.862Z,9.98
2023-04-29T02:26:32.642Z,9.99
2023-04-29T02:28:34.212Z,9.99
2023-04-29T02:30:37.134Z,10.00
2023-04-29T02:32:38.924Z,10.00
2023-04-29T02:34:40.509Z,10.01
2023-04-29T02:36:42.180Z,10.03
2023-04-29T02:38:43.924Z,10.04
2023-04-29T02:40:46.744Z,10.06
2023-04-29T02:42:48.499Z,10.06
2023-04-29T02:44:50.025Z,10.08
2023-04-29T02:46:52.970Z,10.10
2023-04-29T02:48:54.454Z,10.12
2023-04-29T02:50:56.217Z,10.14
2023-04-29T02:52:57.838Z,10.14
2023-04-29T02:54:59.398Z,10.14
2023-04-29T02:57:01.057Z,10.13
2023-04-29T02:59:02.726Z,10.15
2023-04-29T03:01:04.398Z,10.13
2023-04-29T03:03:07.503Z,10.14
2023-04-29T03:05:09.712Z,10.13
2023-04-29T03:07:11.247Z,10.13
2023-04-29T03:09:12.753Z,10.14
2023-04-29T03:11:14.349Z,10.14
2023-04-29T03:13:16.209Z,10.14
2023-04-29T03:15:17.798Z,10.11
2023-04-29T03:17:19.373Z,10.12
2023-04-29T03:19:22.406Z,10.12
2023-04-29T03:21:24.140Z,10.11
2023-04-29T03:23:25.814Z,10.10
2023-04-29T03:25:27.367Z,10.09
2023-04-29T03:27:28.933Z,10.12
2023-04-29T03:29:30.745Z,10.12
2023-04-29T03:31:32.531Z,10.12
2023-04-29T03:33:34.207Z,10.13
2023-04-29T03:35:37.128Z,10.12
2023-04-29T03:37:39.202Z,10.11
2023-04-29T03:39:40.753Z,10.13
2023-04-29T03:41:42.855Z,10.12
2023-04-29T03:43:44.482Z,10.12
2023-04-29T03:45:46.134Z,10.13
2023-04-29T03:47:47.778Z,10.12
2023-04-29T03:49:49.769Z,10.12
2023-04-29T03:51:52.948Z,10.11
2023-04-29T03:53:55.628Z,10.11
2023-04-29T03:55:57.212Z,10.12
2023-04-29T03:57:58.749Z,10.11
2023-04-29T04:00:00.333Z,10.10
2023-04-29T04:02:02.902Z,10.09
2023-04-29T04:04:04.876Z,10.12
2023-04-29T04:06:06.566Z,10.10
2023-04-29T04:08:09.498Z,10.13
2023-04-29T04:10:11.239Z,10.13
2023-04-29T04:12:12.988Z,10.13
2023-04-29T04:14:15.187Z,10.14
2023-04-29T04:16:16.775Z,10.15
2023-04-29T04:18:18.433Z,10.16
2023-04-29T04:20:20.050Z,10.17
2023-04-29T04:22:21.684Z,10.16
2023-04-29T04:24:24.744Z,10.17
2023-04-29T04:26:26.286Z,10.16
2023-04-29T04:28:27.908Z,10.18
2023-04-29T04:30:29.425Z,10.18
2023-04-29T04:32:31.065Z,10.18
2023-04-29T04:34:32.615Z,10.19
2023-04-29T04:36:34.167Z,10.19
2023-04-29T04:38:35.823Z,10.20
2023-04-29T04:40:41.077Z,10.23
2023-04-29T04:42:42.644Z,10.23
2023-04-29T04:44:44.230Z,10.23
2023-04-29T04:46:45.984Z,10.24
2023-04-29T04:48:47.633Z,10.25
2023-04-29T04:50:49.200Z,10.26
2023-04-29T04:52:50.905Z,10.28
2023-04-29T04:54:52.456Z,10.29
2023-04-29T04:56:55.472Z,10.29
2023-04-29T04:58:57.022Z,10.30
2023-04-29T05:00:58.765Z,10.31
2023-04-29T05:03:00.945Z,10.32
2023-04-29T05:05:02.551Z,10.31
2023-04-29T05:07:04.154Z,10.33
2023-04-29T05:09:05.702Z,10.34
2023-04-29T05:11:07.530Z,10.34
2023-04-29T05:13:10.529Z,10.34
2023-04-29T05:15:12.256Z,10.36
2023-04-29T05:17:13.893Z,10.37
2023-04-29T05:19:15.676Z,10.36
2023-04-29T05:21:17.850Z,10.39
2023-04-29T05:23:19.520Z,10.40
2023-04-29T05:25:21.280Z,10.37
2023-04-29T05:27:22.922Z,10.39
2023-04-29T05:29:25.975Z,10.40
2023-04-29T05:31:27.910Z,10.41
2023-04-29T05:33:29.632Z,10.41
2023-04-29T05:35:31.289Z,10.40
2023-04-29T05:37:33.036Z,10.41
2023-04-29T05:39:34.652Z,10.41
2023-04-29T05:41:36.263Z,10.41
2023-04-29T05:43:37.805Z,10.42
2023-04-29T05:45:40.726Z,10.42
2023-04-29T05:47:42.347Z,10.44
2023-04-29T05:49:44.053Z,10.45
2023-04-29T05:51:45.640Z,10.47
2023-04-29T05:53:47.545Z,10.49
2023-04-29T05:55:51.074Z,10.50
2023-04-29T05:57:52.787Z,10.51
2023-04-29T05:59:54.427Z,10.52
2023-04-29T06:01:57.521Z,10.52
2023-04-29T06:03:59.297Z,10.53
2023-04-29T06:06:01.232Z,10.55
2023-04-29T06:08:04.042Z,10.55
2023-04-29T06:10:07.019Z,10.55
2023-04-29T06:12:08.708Z,10.54
2023-04-29T06:14:10.478Z,10.56
2023-04-29T06:16:12.569Z,10.57
2023-04-29T06:18:15.535Z,10.58
2023-04-29T06:20:18.237Z,10.59
2023-04-29T06:22:19.972Z,10.58
2023-04-29T06:24:21.635Z,10.60
2023-04-29T06:26:23.305Z,10.60
2023-04-29T06:28:24.948Z,10.62
2023-04-29T06:30:26.752Z,10.63
2023-04-29T06:32:28.400Z,10.64
2023-04-29T06:34:31.447Z,10.65
2023-04-29T06:36:33.002Z,10.65
2023-04-29T06:38:34.654Z,10.66
2023-04-29T06:40:36.227Z,10.68
2023-04-29T06:42:37.841Z,10.68
2023-04-29T06:44:39.539Z,10.68
2023-04-29T06:46:41.116Z,10.68
2023-04-29T06:48:42.928Z,10.68
2023-04-29T06:50:51.337Z,10.70
2023-04-29T06:52:52.929Z,10.69
2023-04-29T06:54:54.668Z,10.69
2023-04-29T06:56:56.191Z,10.67
2023-04-29T06:58:57.865Z,10.69
2023-04-29T07:00:59.519Z,10.69
2023-04-29T07:03:01.544Z,10.70
2023-04-29T07:05:03.227Z,10.69
2023-04-29T07:07:06.134Z,10.69
2023-04-29T07:09:07.752Z,10.71
2023-04-29T07:11:09.297Z,10.71
2023-04-29T07:13:10.803Z,10.71
2023-04-29T07:15:12.547Z,10.73
2023-04-29T07:17:14.320Z,10.72
2023-04-29T07:19:15.962Z,10.73
2023-04-29T07:21:17.570Z,10.73
2023-04-29T07:23:20.685Z,10.77
2023-04-29T07:25:22.349Z,10.79
2023-04-29T07:27:23.909Z,10.80
2023-04-29T07:29:25.537Z,10.83
2023-04-29T07:31:27.347Z,10.84
2023-04-29T07:33:28.932Z,10.86
2023-04-29T07:35:30.490Z,10.88
2023-04-29T07:37:32.070Z,10.90
2023-04-29T07:39:35.038Z,10.91
2023-04-29T07:41:36.651Z,10.93
2023-04-29T07:43:39.239Z,10.93
2023-04-29T07:45:42.626Z,10.97
2023-04-29T07:47:44.527Z,10.98
2023-04-29T07:49:46.103Z,11.01
2023-04-29T07:51:47.675Z,11.03
2023-04-29T07:53:49.227Z,11.05
2023-04-29T07:55:52.146Z,11.07
2023-04-29T07:57:53.779Z,11.08
2023-04-29T07:59:55.484Z,11.10
2023-04-29T08:01:57.064Z,11.12
2023-04-29T08:03:58.885Z,11.13
2023-04-29T08:06:02.176Z,11.14
2023-04-29T08:08:03.874Z,11.16
2023-04-29T08:10:06.739Z,11.17
2023-04-29T08:12:09.945Z,11.20
2023-04-29T08:14:11.696Z,11.22
2023-04-29T08:16:13.756Z,11.26
2023-04-29T08:18:15.440Z,11.28
2023-04-29T08:20:17.056Z,11.31
2023-04-29T08:22:19.232Z,11.34
2023-04-29T08:24:20.834Z,11.37
2023-04-29T08:26:23.961Z,11.39
2023-04-29T08:28:27.124Z,11.43
2023-04-29T08:30:28.782Z,11.46
2023-04-29T08:32:30.379Z,11.50
2023-04-29T08:34:32.135Z,11.54
2023-04-29T08:36:33.845Z,11.58
2023-04-29T08:38:35.384Z,11.61
2023-04-29T08:40:43.136Z,11.66
2023-04-29T08:42:47.392Z,11.70
2023-04-29T08:44:53.329Z,11.77
2023-04-29T08:46:56.016Z,11.80
2023-04-29T08:48:58.591Z,11.85
2023-04-29T08:51:00.384Z,11.92
2023-04-29T08:53:02.010Z,11.99
2023-04-29T08:55:03.972Z,12.05
2023-04-29T08:57:06.358Z,12.12
2023-04-29T08:59:10.600Z,12.20
2023-04-29T09:01:14.241Z,12.28
2023-04-29T09:03:22.192Z,12.37
2023-04-29T09:05:25.056Z,12.47
2023-04-29T09:07:28.049Z,12.56
2023-04-29T09:09:30.663Z,12.69
2023-04-29T09:11:32.538Z,12.81
2023-04-29T09:13:34.301Z,12.90
2023-04-29T09:15:36.763Z,13.00
2023-04-29T09:17:40.851Z,13.13
2023-04-29T09:19:44.853Z,13.25
2023-04-29T09:21:54.437Z,13.42
2023-04-29T09:23:57.702Z,13.54
2023-04-29T09:25:59.318Z,13.68
2023-04-29T09:28:15.217Z,13.84
2023-04-29T09:30:17.027Z,13.94
2023-04-29T09:32:19.316Z,14.08
2023-04-29T09:34:32.792Z,14.22
2023-04-29T09:36:42.411Z,14.32
2023-04-29T09:38:53.919Z,14.44
2023-04-29T09:40:59.439Z,14.51
2023-04-29T09:43:01.775Z,14.58
2023-04-29T09:45:03.671Z,14.69
2023-04-29T09:47:07.005Z,14.77
2023-04-29T09:49:23.375Z,14.88
2023-04-29T09:51:26.379Z,14.95
2023-04-29T09:53:29.320Z,15.05
2023-04-29T09:55:31.003Z,15.19
2023-04-29T09:57:41.523Z,15.38
2023-04-29T09:59:44.432Z,15.53
2023-04-29T10:01:48.829Z,15.69
2023-04-29T10:03:54.414Z,15.91
2023-04-29T10:05:57.272Z,16.07
2023-04-29T10:08:01.378Z,16.32
2023-04-29T10:10:06.225Z,16.49
2023-04-29T10:12:08.296Z,16.57
2023-04-29T10:14:13.395Z,16.66
2023-04-29T10:16:27.796Z,16.74
2023-04-29T10:18:36.267Z,16.80
2023-04-29T10:20:41.836Z,16.83
2023-04-29T10:22:46.724Z,17.00
2023-04-29T10:24:54.489Z,17.08
2023-04-29T10:26:57.298Z,17.19
2023-04-29T10:29:00.345Z,17.39
2023-04-29T10:31:02.988Z,17.51
2023-04-29T10:33:06.710Z,17.71
2023-04-29T10:35:10.517Z,17.90
2023-04-29T10:37:13.496Z,18.03
2023-04-29T10:39:26.945Z,18.16
2023-04-29T10:41:34.703Z,18.37
2023-04-29T10:43:36.676Z,18.52
2023-04-29T10:45:39.005Z,18.66
2023-04-29T10:47:40.855Z,18.80
2023-04-29T10:50:03.691Z,19.00
2023-04-29T10:52:06.148Z,19.12
2023-04-29T10:54:09.603Z,19.24
2023-04-29T10:56:11.356Z,19.38
2023-04-29T10:58:36.172Z,19.58
2023-04-29T11:00:38.262Z,19.69
2023-04-29T11:02:40.285Z,19.79
2023-04-29T11:05:09.373Z,19.94
2023-04-29T11:07:27.171Z,20.11
2023-04-29T11:09:30.104Z,20.22
2023-04-29T11:11:45.758Z,20.40
2023-04-29T11:13:48.727Z,20.53
2023-04-29T11:15:51.704Z,20.66
2023-04-29T11:17:53.351Z,20.79
2023-04-29T11:19:55.525Z,20.94
2023-04-29T11:22:13.262Z,21.08
2023-04-29T11:24:15.484Z,21.18
2023-04-29T11:26:19.718Z,21.28
2023-04-29T11:28:22.526Z,21.40
2023-04-29T11:30:28.889Z,21.54
2023-04-29T11:32:32.201Z,21.65
2023-04-29T11:34:34.093Z,21.81
2023-04-29T11:36:35.730Z,21.97
2023-04-29T11:38:40.290Z,22.11
2023-04-29T11:40:42.451Z,22.22
2023-04-29T11:42:45.556Z,22.34
2023-04-29T11:44:47.255Z,22.46
2023-04-29T11:46:50.532Z,22.53
2023-04-29T11:48:52.419Z,22.62
2023-04-29T11:50:59.286Z,22.68
2023-04-29T11:53:00.944Z,22.75
2023-04-29T11:55:03.425Z,22.80
2023-04-29T11:57:05.132Z,22.85
2023-04-29T11:59:07.042Z,22.91
2023-04-29T12:01:08.759Z,22.97
2023-04-29T12:03:15.995Z,23.05
2023-04-29T12:05:18.096Z,23.10
2023-04-29T12:07:20.159Z,23.17
2023-04-29T12:09:21.732Z,23.20
2023-04-29T12:11:23.884Z,23.26
2023-04-29T12:13:27.890Z,23.32
2023-04-29T12:15:30.254Z,23.41
2023-04-29T12:17:32.109Z,23.49
2023-04-29T12:19:35.494Z,23.51
2023-04-29T12:21:38.116Z,23.57
2023-04-29T12:23:41.451Z,23.61
2023-04-29T12:25:49.218Z,23.63
2023-04-29T12:27:51.174Z,23.63
2023-04-29T12:29:53.186Z,23.64
2023-04-29T12:31:56.693Z,23.64
2023-04-29T12:33:58.313Z,23.63
2023-04-29T12:36:02.242Z,23.62
2023-04-29T12:38:04.041Z,23.63
2023-04-29T12:40:07.470Z,23.61
2023-04-29T12:42:15.239Z,23.64
2023-04-29T12:44:17.233Z,23.66
2023-04-29T12:46:21.519Z,23.68
2023-04-29T12:48:32.725Z,23.68
2023-04-29T12:50:37.294Z,23.67
2023-04-29T12:52:40.250Z,23.65
2023-04-29T12:54:43.091Z,23.61
2023-04-29T12:56:44.792Z,23.56
2023-04-29T12:58:46.385Z,23.51
2023-04-29T13:00:48.122Z,23.50
2023-04-29T13:02:49.766Z,23.50
2023-04-29T13:04:51.897Z,23.49
2023-04-29T13:06:54.081Z,23.53
2023-04-29T13:08:57.156Z,23.55
2023-04-29T13:11:01.188Z,23.61
2023-04-29T13:13:03.330Z,23.67
2023-04-29T13:15:06.252Z,23.74
2023-04-29T13:17:08.017Z,23.80
2023-04-29T13:19:28.150Z,23.81
2023-04-29T13:21:31.379Z,23.73
2023-04-29T13:23:32.956Z,23.68
2023-04-29T13:25:36.354Z,23.66
2023-04-29T13:27:38.390Z,23.59
2023-04-29T13:29:40.284Z,23.48
2023-04-29T13:31:42.081Z,23.35
2023-04-29T13:33:43.988Z,23.29
2023-04-29T13:35:46.166Z,23.21
2023-04-29T13:37:47.988Z,23.14
2023-04-29T13:39:56.881Z,23.08
2023-04-29T13:42:00.729Z,23.04
2023-04-29T13:44:03.433Z,23.03
2023-04-29T13:46:07.717Z,23.03
2023-04-29T13:48:26.063Z,23.04
2023-04-29T13:59:36.182Z,22.98
2023-04-29T14:01:54.671Z,22.96
2023-04-29T14:03:35.892Z,22.96
2023-04-29T14:05:38.017Z,22.96
2023-04-29T14:07:40.023Z,22.99
2023-04-29T14:09:41.630Z,23.04
2023-04-29T14:12:02.882Z,23.12
2023-04-29T14:14:05.991Z,23.18
2023-04-29T14:16:08.779Z,23.22
2023-04-29T14:18:10.541Z,23.25
2023-04-29T14:20:13.528Z,23.29
2023-04-29T14:22:15.136Z,23.32
2023-04-29T14:24:16.750Z,23.34
2023-04-29T14:28:23.754Z,23.41
2023-04-29T14:30:26.977Z,23.45
2023-04-29T14:32:28.639Z,23.48
2023-04-29T14:34:30.264Z,23.47
2023-04-29T14:36:32.783Z,23.44
2023-04-29T14:38:34.571Z,23.37
2023-04-29T14:40:36.186Z,23.34
2023-04-29T14:42:39.330Z,23.29
2023-04-29T14:44:41.105Z,23.25
2023-04-29T14:46:44.273Z,23.23
2023-04-29T14:48:46.179Z,23.19
2023-04-29T14:50:48.015Z,23.18
2023-04-29T14:52:49.883Z,23.16
2023-04-29T14:54:51.596Z,23.10
2023-04-29T14:56:53.299Z,23.10
2023-04-29T14:58:55.772Z,23.04
2023-04-29T15:00:57.569Z,23.02
2023-04-29T15:03:02.187Z,22.98
2023-04-29T15:05:06.230Z,22.97
2023-04-29T15:07:07.818Z,22.88
2023-04-29T15:09:09.654Z,22.79
2023-04-29T15:11:11.639Z,22.68
2023-04-29T15:13:13.406Z,22.58
2023-04-29T15:15:15.271Z,22.47
2023-04-29T15:17:17.165Z,22.33
2023-04-29T15:19:20.477Z,22.22
2023-04-29T15:21:22.077Z,22.01
2023-04-29T15:23:26.010Z,21.92
2023-04-29T15:25:27.812Z,21.83
2023-04-29T15:27:29.615Z,21.71
2023-04-29T15:29:31.328Z,21.59
2023-04-29T15:31:33.206Z,21.53
2023-04-29T15:33:34.739Z,21.42
2023-04-29T15:35:37.833Z,21.31
2023-04-29T15:37:39.362Z,21.25
2023-04-29T15:39:41.143Z,21.17
2023-04-29T15:41:42.707Z,21.10
2023-04-29T15:43:44.341Z,21.02
2023-04-29T15:45:45.964Z,20.97
2023-04-29T15:47:47.679Z,20.89
2023-04-29T15:49:49.458Z,20.80
2023-04-29T15:51:52.402Z,20.74
2023-04-29T15:53:54.356Z,20.66
2023-04-29T15:55:56.033Z,20.60
2023-04-29T15:57:57.572Z,20.49
2023-04-29T15:59:59.209Z,20.41
2023-04-29T16:02:01.077Z,20.34
2023-04-29T16:04:03.085Z,20.29
2023-04-29T16:06:05.080Z,20.23
2023-04-29T16:08:08.441Z,20.14
2023-04-29T16:10:10.681Z,20.08
2023-04-29T16:12:12.804Z,20.00
2023-04-29T16:14:14.355Z,19.89
2023-04-29T16:16:15.993Z,19.85
2023-04-29T16:18:17.617Z,19.74
2023-04-29T16:20:19.514Z,19.67
2023-04-29T16:22:21.059Z,19.61
2023-04-29T16:24:24.208Z,19.53
2023-04-29T16:26:26.318Z,19.47
2023-04-29T16:28:28.146Z,19.43
2023-04-29T16:30:30.030Z,19.35
2023-04-29T16:32:31.891Z,19.32
2023-04-29T16:34:33.604Z,19.28
2023-04-29T16:36:35.831Z,19.24
2023-04-29T16:38:37.732Z,19.17
2023-04-29T16:40:40.776Z,19.12
2023-04-29T16:42:42.325Z,19.07
2023-04-29T16:44:44.012Z,19.04
2023-04-29T16:46:45.767Z,18.98
2023-04-29T16:48:47.862Z,18.88
2023-04-29T16:50:50.589Z,18.83
2023-04-29T16:52:52.391Z,18.77
2023-04-29T16:54:53.951Z,18.72
2023-04-29T16:56:57.038Z,18.65
2023-04-29T16:58:58.873Z,18.60
2023-04-29T17:01:00.766Z,18.55
2023-04-29T17:03:02.535Z,18.42
2023-04-29T17:05:04.545Z,18.36
2023-04-29T17:07:06.227Z,18.25
2023-04-29T17:09:08.193Z,18.18
2023-04-29T17:11:09.742Z,18.09
2023-04-29T17:13:12.840Z,18.07
2023-04-29T17:15:14.554Z,17.97
2023-04-29T17:17:16.345Z,17.92
2023-04-29T17:19:17.974Z,17.83
2023-04-29T17:21:19.596Z,17.76
2023-04-29T17:23:21.203Z,17.71
2023-04-29T17:25:23.263Z,17.65
2023-04-29T17:27:25.182Z,17.68
2023-04-29T17:29:28.363Z,17.75
2023-04-29T17:31:30.246Z,17.77
2023-04-29T17:33:31.984Z,17.83
2023-04-29T17:35:34.507Z,17.88
2023-04-29T17:37:36.495Z,17.96
2023-04-29T17:39:38.161Z,17.95
2023-04-29T17:41:39.828Z,17.99
2023-04-29T17:43:41.381Z,17.97
2023-04-29T17:45:44.816Z,18.00
2023-04-29T17:47:46.424Z,18.02
2023-04-29T17:49:48.146Z,17.93
2023-04-29T17:51:49.784Z,17.91
2023-04-29T17:53:51.690Z,17.72
2023-04-29T17:55:53.646Z,17.60
2023-04-29T17:57:55.666Z,17.46
2023-04-29T17:59:57.779Z,17.31
2023-04-29T18:02:01.022Z,17.16
2023-04-29T18:04:02.964Z,17.04
2023-04-29T18:06:05.245Z,16.90
2023-04-29T18:08:06.922Z,16.80
2023-04-29T18:10:09.259Z,16.67
2023-04-29T18:12:10.859Z,16.55
2023-04-29T18:14:12.461Z,16.44
2023-04-29T18:16:14.074Z,16.33
2023-04-29T18:18:17.227Z,16.21
2023-04-29T18:20:19.057Z,16.12
2023-04-29T18:22:20.628Z,16.02
2023-04-29T18:24:22.221Z,15.92
2023-04-29T18:26:24.042Z,15.84
2023-04-29T18:28:28.492Z,15.75
2023-04-29T18:30:30.647Z,15.67
2023-04-29T18:32:32.160Z,15.55
2023-04-29T18:34:35.176Z,15.45
2023-04-29T18:36:37.189Z,15.36
2023-04-29T18:38:38.992Z,15.25
2023-04-29T18:40:40.748Z,15.15
2023-04-29T18:42:42.428Z,15.06
2023-04-29T18:44:44.635Z,14.97
2023-04-29T18:46:46.558Z,14.89
2023-04-29T18:48:48.622Z,14.79
2023-04-29T18:50:53.468Z,14.71
2023-04-29T18:52:55.075Z,14.63
2023-04-29T18:54:56.944Z,14.54
2023-04-29T18:56:58.510Z,14.46
2023-04-29T18:59:00.140Z,14.39
2023-04-29T19:01:02.413Z,14.30
2023-04-29T19:03:04.934Z,14.24
2023-04-29T19:05:08.274Z,14.17
2023-04-29T19:07:11.329Z,14.10
2023-04-29T19:09:12.955Z,14.01
2023-04-29T19:11:14.766Z,13.94
2023-04-29T19:13:16.431Z,13.87
2023-04-29T19:15:18.286Z,13.80
2023-04-29T19:17:20.359Z,13.74
2023-04-29T19:19:22.245Z,13.66
2023-04-29T19:21:24.102Z,13.59
2023-04-29T19:23:29.993Z,13.53
2023-04-29T19:25:33.106Z,13.47
2023-04-29T19:27:35.104Z,13.41
2023-04-29T19:29:36.747Z,13.34
2023-04-29T19:31:38.612Z,13.29
2023-04-29T19:33:40.165Z,13.24
2023-04-29T19:35:41.693Z,13.18
2023-04-29T19:37:43.500Z,13.12
2023-04-29T19:39:46.686Z,13.05
2023-04-29T19:41:48.473Z,12.99
2023-04-29T19:43:49.990Z,12.94
2023-04-29T19:45:51.609Z,12.88
2023-04-29T19:47:53.259Z,12.82
2023-04-29T19:49:55.534Z,12.78
2023-04-29T19:51:57.322Z,12.70
2023-04-29T19:53:59.003Z,12.65
2023-04-29T19:56:02.053Z,12.60
2023-04-29T19:58:03.624Z,12.55
2023-04-29T20:00:06.684Z,12.51
2023-04-29T20:02:08.315Z,12.46
2023-04-29T20:04:11.966Z,12.42
2023-04-29T20:06:16.293Z,12.36
2023-04-29T20:08:17.906Z,12.32
2023-04-29T20:10:19.924Z,12.27
2023-04-29T20:12:22.788Z,12.23
2023-04-29T20:14:24.652Z,12.17
2023-04-29T20:16:26.886Z,12.13
2023-04-29T20:18:28.726Z,12.08
2023-04-29T20:20:30.788Z,12.04
2023-04-29T20:22:32.454Z,11.99
2023-04-29T20:24:34.280Z,11.95
2023-04-29T20:26:35.856Z,11.91
2023-04-29T20:28:38.842Z,11.85
2023-04-29T20:30:40.760Z,11.79
2023-04-29T20:32:42.345Z,11.75
2023-04-29T20:34:44.697Z,11.69
2023-04-29T20:36:46.304Z,11.65
2023-04-29T20:38:47.935Z,11.60
2023-04-29T20:40:52.770Z,11.56
2023-04-29T20:42:54.476Z,11.52
2023-04-29T20:44:59.010Z,11.48
2023-04-29T20:47:00.841Z,11.43
2023-04-29T20:49:04.857Z,11.38
2023-04-29T20:51:06.701Z,11.33
2023-04-29T20:53:08.565Z,11.29
2023-04-29T20:55:10.626Z,11.23
2023-04-29T20:57:12.428Z,11.19
2023-04-29T20:59:14.256Z,11.14
2023-04-29T21:01:17.648Z,11.08
2023-04-29T21:03:19.289Z,11.05
2023-04-29T21:05:23.495Z,10.99
2023-04-29T21:07:25.068Z,10.96
2023-04-29T21:09:26.737Z,10.91
2023-04-29T21:11:30.506Z,10.86
2023-04-29T21:13:32.178Z,10.82
2023-04-29T21:15:34.060Z,10.78
2023-04-29T21:17:37.318Z,10.73
2023-04-29T21:19:38.959Z,10.69
2023-04-29T21:21:40.578Z,10.66
2023-04-29T21:23:42.236Z,10.61
2023-04-29T21:25:43.824Z,10.58
2023-04-29T21:27:45.430Z,10.55
2023-04-29T21:29:46.983Z,10.49
2023-04-29T21:31:48.673Z,10.45
2023-04-29T21:33:51.847Z,10.42
2023-04-29T21:35:53.470Z,10.39
2023-04-29T21:37:55.645Z,10.35
2023-04-29T21:39:57.340Z,10.31
2023-04-29T21:41:59.274Z,10.27
2023-04-29T21:44:02.458Z,10.24
2023-04-29T21:46:07.067Z,10.21
2023-04-29T21:48:14.603Z,10.17
2023-04-29T21:50:17.725Z,10.14
2023-04-29T21:52:19.904Z,10.10
2023-04-29T21:54:22.003Z,10.06
2023-04-29T21:56:23.822Z,10.03
2023-04-29T21:58:25.869Z,10.01
2023-04-29T22:00:27.462Z,9.97
2023-04-29T22:02:29.305Z,9.94
2023-04-29T22:04:31.406Z,9.90
2023-04-29T22:06:34.637Z,9.87
2023-04-29T22:08:36.667Z,9.86
2023-04-29T22:10:39.158Z,9.81
2023-04-29T22:12:41.143Z,9.76
2023-04-29T22:14:46.594Z,9.75
2023-04-29T22:16:48.735Z,9.70
2023-04-29T22:18:50.775Z,9.66
2023-04-29T22:20:52.652Z,9.62
2023-04-29T22:22:56.004Z,9.60
2023-04-29T22:24:57.660Z,9.57
2023-04-29T22:26:59.713Z,9.55
2023-04-29T22:29:02.062Z,9.52
2023-04-29T22:31:03.994Z,9.49
2023-04-29T22:33:06.182Z,9.46
2023-04-29T22:35:08.246Z,9.43
2023-04-29T22:37:09.937Z,9.40
2023-04-29T22:39:12.893Z,9.38
2023-04-29T22:41:14.729Z,9.35
2023-04-29T22:43:16.673Z,9.32
2023-04-29T22:45:18.321Z,9.29
2023-04-29T22:47:20.452Z,9.25
2023-04-29T22:49:22.137Z,9.22
2023-04-29T22:51:23.659Z,9.18
2023-04-29T22:53:25.701Z,9.17
2023-04-29T22:55:28.702Z,9.13
2023-04-29T22:57:30.340Z,9.11
2023-04-29T22:59:32.198Z,9.09
2023-04-29T23:01:33.796Z,9.06
2023-04-29T23:03:35.396Z,9.03
2023-04-29T23:05:37.051Z,9.00
2023-04-29T23:07:38.633Z,8.98
2023-04-29T23:09:40.150Z,8.95
2023-04-29T23:11:43.273Z,8.92
2023-04-29T23:13:45.106Z,8.90
2023-04-29T23:15:46.774Z,8.86
2023-04-29T23:17:48.505Z,8.85
2023-04-29T23:19:50.142Z,8.80
2023-04-29T23:21:51.654Z,8.76
2023-04-29T23:23:53.344Z,8.74
2023-04-29T23:25:55.026Z,8.71
2023-04-29T23:27:58.336Z,8.68
2023-04-29T23:29:59.875Z,8.66
2023-04-29T23:32:01.999Z,8.65
2023-04-29T23:34:03.649Z,8.62
2023-04-29T23:36:06.190Z,8.59
2023-04-29T23:38:07.821Z,8.57
2023-04-29T23:40:10.158Z,8.55
2023-04-29T23:42:11.798Z,8.54
2023-04-29T23:44:15.341Z,8.50
2023-04-29T23:46:17.335Z,8.49
2023-04-29T23:48:18.850Z,8.46
2023-04-29T23:50:20.698Z,8.45
2023-04-29T23:52:22.466Z,8.42
2023-04-29T23:54:24.328Z,8.40
2023-04-29T23:56:26.107Z,8.38
2023-04-29T23:58:27.756Z,8.35
